Terminal Aerodrome Forecast
Issued by NWS Upton, NY

Home | Current Version | Previous Version | Text Only | Print | Product List | Glossary On
Versions: 1 2 3 4 5 6 7 8 9 10 11 12 13 14 15 16 17 18 19 20 21 22 23 24 25 26 27 28 29 30 31 32 33
413
FTUS41 KOKX 150844 AAA
TAFBDR
TAF AMD
KBDR 150844Z 1509/1606 30007KT P6SM SCT230
     FM151200 29004KT P6SM BKN170
     FM151700 24006KT P6SM SCT040 BKN120
     FM152100 25005KT P6SM SCT015 BKN035
      TEMPO 1521/1601 3SM -SN BKN015
     FM160200 27009KT P6SM SCT035 BKN070=

USA.gov is the U.S. government's official web portal to all federal, state and local government web resources and services.